Flight Track Log - Related Links

Times and Time Zones

All times are in EDT time to prevent confusion due to time zone crossing. See the N2930Y flight status page for this flight to view local times or setup timezone preferences in your user account.

Time Position Orientation Groundspeed Altitude Reporting Facility
EDT Latitude Longitude Course Direction KTS MPH feet Rate Location/Type
Mon 03:02:00 PM 40.0761 -83.0803 271° West 114 131 1,100  Level Indianapolis Center
Mon 03:03:07 PM 40.0767 -83.1189 271° West 104 120 2,000 797 Climbing Indianapolis Center
Mon 03:04:08 PM 40.1028 -83.1314 340° North 108 124 2,800 818 Climbing Indianapolis Center
Mon 03:04:57 PM 40.1228 -83.1428 336° Northwest 100 115 3,500 595 Climbing Indianapolis Center
Mon 03:06:09 PM 40.1589 -83.1597 340° North 123 142 4,000 259 Climbing Indianapolis Center
Mon 03:07:16 PM 40.2017 -83.1747 345° North 136 157 4,100 49 Climbing Indianapolis Center
Mon 03:08:11 PM 40.2342 -83.1856 346° North 147 169 4,100  Level Indianapolis Center
Mon 03:09:17 PM 40.2783 -83.2067 340° North 146 168 4,100 -3 Level Indianapolis Center
Mon 03:11:00 PM 40.3383 -83.2193 351° North  Level FlightAware Approximate
Mon 03:18:00 PM 40.5819 -83.2932 342° North  Level FlightAware Approximate
Mon 03:19:00 PM 40.6155 -83.3079 342° North  Level FlightAware Approximate
Mon 03:20:00 PM 40.6491 -83.3226 342° North  Level FlightAware Approximate
Mon 03:21:00 PM 40.6827 -83.3374 342° North  Level FlightAware Approximate
Mon 03:22:00 PM 40.7162 -83.3522 342° North  Level FlightAware Approximate
Mon 03:23:00 PM 40.7498 -83.3670 342° North  Level FlightAware Approximate
Mon 03:24:00 PM 40.7834 -83.3818 342° North  Level FlightAware Approximate
Mon 03:25:00 PM 40.8170 -83.3966 342° North  Level FlightAware Approximate
Mon 03:26:00 PM 40.8505 -83.4114 342° North  Level FlightAware Approximate
Mon 03:27:00 PM 40.8841 -83.4263 342° North  Level FlightAware Approximate
Mon 03:28:00 PM 40.9177 -83.4410 342° North  Level FlightAware Approximate
Mon 03:29:00 PM 40.9513 -83.4555 342° North  Level FlightAware Approximate
Mon 03:30:00 PM 40.9850 -83.4701 342° North  Level FlightAware Approximate
Mon 03:31:00 PM 41.0186 -83.4847 342° North  Level FlightAware Approximate
Mon 03:32:00 PM 41.0522 -83.4993 342° North  Level FlightAware Approximate
Mon 03:33:00 PM 41.0859 -83.5139 342° North  Level FlightAware Approximate
Mon 03:34:00 PM 41.1195 -83.5285 342° North  Level FlightAware Approximate
Mon 03:35:00 PM 41.1531 -83.5432 342° North  Level FlightAware Approximate
Mon 03:36:00 PM 41.1868 -83.5578 342° North  Level FlightAware Approximate
Mon 03:37:00 PM 41.2204 -83.5725 342° North  Level FlightAware Approximate
Mon 03:38:00 PM 41.2540 -83.5872 342° North  Level FlightAware Approximate
Mon 03:39:00 PM 41.2877 -83.6020 341° North  Level FlightAware Approximate
Mon 03:40:00 PM 41.3211 -83.6172 341° North  Level FlightAware Approximate
Mon 03:41:00 PM 41.3546 -83.6325 341° North  Level FlightAware Approximate
Mon 03:42:00 PM 41.3881 -83.6478 341° North  Level FlightAware Approximate
Mon 03:43:00 PM 41.4216 -83.6631 341° North  Level FlightAware Approximate
Mon 03:44:00 PM 41.4551 -83.6784 341° North  Level FlightAware Approximate
Mon 03:45:00 PM 41.4885 -83.6938 341° North  Level FlightAware Approximate
Mon 03:46:00 PM 41.5220 -83.7091 341° North  Level FlightAware Approximate
Mon 03:47:00 PM 41.5555 -83.7245 341° North  Level FlightAware Approximate
Mon 03:47:04 PM 41.7269 -83.5797 20° North 147 169 4,000  Level Cleveland Center
Mon 03:47:53 PM 41.7603 -83.5786 North 146 168 4,000  Level Cleveland Center
Mon 03:48:00 PM 41.5890 -83.7399 341° North  Level FlightAware Approximate
Mon 03:48:54 PM 41.8000 -83.5747 North 150 173 4,000  Level Cleveland Center
Mon 03:49:00 PM 41.6224 -83.7553 341° North  Level FlightAware Approximate
Mon 03:49:49 PM 41.8350 -83.5931 339° North 143 165 4,000  Level Cleveland Center
Mon 03:50:00 PM 41.6559 -83.7707 341° North  Level FlightAware Approximate
Mon 03:50:56 PM 41.8761 -83.6144 339° North 143 165 3,900  Level Cleveland Center
Mon 03:51:00 PM 41.6893 -83.7803 20° North  Level FlightAware Approximate
Mon 03:52:00 PM 41.7225 -83.7638 20° North  Level FlightAware Approximate
Mon 03:52:03 PM 41.9172 -83.6361 339° North 141 162 4,000  Level Cleveland Center
Mon 03:53:10 PM 41.9606 -83.6578 340° North 145 167 3,900 -49 Descending Cleveland Center
Mon 03:54:05 PM 41.9914 -83.6731 340° North 145 167 3,900  Level Cleveland Center
Mon 03:55:05 PM 42.0347 -83.6864 347° North 146 168 3,900 49 Level Cleveland Center
Mon 03:56:07 PM 42.0742 -83.6911 355° North 152 175 4,000 98 Climbing Cleveland Center
Mon 03:57:07 PM 42.1136 -83.6958 355° North 146 168 4,100 50 Climbing Cleveland Center
Mon 03:58:08 PM 42.1533 -83.6978 358° North 147 169 4,100  Level Cleveland Center
Mon 03:59:09 PM 42.1947 -83.7056 352° North 146 168 4,100  Level Cleveland Center
Mon 04:00:10 PM 42.2367 -83.6936 12° North 155 178 4,100 -47 Level Cleveland Center
Mon 04:01:18 PM 42.2750 -83.6644 29° Northeast 156 180 4,000 -49 Descending Cleveland Center
Mon 04:02:12 PM 42.3131 -83.6494 16° North 152 175 4,000  Level Cleveland Center
Mon 04:03:14 PM 42.3472 -83.6203 32° Northeast 147 169 4,000  Level Cleveland Center
Mon 04:04:09 PM 42.3850 -83.6025 19° North 147 169 4,000  Level Cleveland Center
Mon 04:05:16 PM 42.4278 -83.5706 29° Northeast 149 171 4,000 -141 Level Cleveland Center
Mon 04:06:17 PM 42.4658 -83.5472 24° Northeast 167 192 3,700 -390 Descending Cleveland Center
Mon 04:07:19 PM 42.5081 -83.5211 25° Northeast 162 186 3,200 -372 Descending Cleveland Center
Mon 04:08:26 PM 42.5469 -83.4747 41° Northeast 154 177 2,900 -197 Descending Cleveland Center
Mon 04:09:21 PM 42.5747 -83.4422 41° Northeast 152 175 2,800 -310 Descending Cleveland Center
Mon 04:10:22 PM 42.6053 -83.3928 50° Northeast 164 189 2,300 -537 Descending Cleveland Center
Mon 04:11:24 PM 42.6389 -83.3803 15° North 119 137 1,700 -581 Descending Cleveland Center
Mon 04:13:00 PM 42.6500 -83.4167 North  Level FlightAware Approximate
Mon 04:20:00 PM 42.6656 -83.4205 North  Level Estimated
Mon 04:21:00 PM 42.6656 -83.4205 North  Level Estimated

Login

Don't have an account? Register now (free) for customized features, flight alerts, and more!